sensor_id;sensor_type;location;lat;lon;timestamp;pressure;altitude;pressure_sealevel;temperature;humidity
86206;BME280;76857;48.140;11.594;2024-03-23T05:00:22;94997.06;;;10.96;57.89
86206;BME280;76857;48.140;11.594;2024-03-23T05:02:48;94994.38;;;10.96;57.50
86206;BME280;76857;48.140;11.594;2024-03-23T05:05:14;94981.03;;;10.96;57.56
86206;BME280;76857;48.140;11.594;2024-03-23T05:07:40;94991.75;;;11.01;57.04
86206;BME280;76857;48.140;11.594;2024-03-23T05:10:07;94972.22;;;10.96;57.21
86206;BME280;76857;48.140;11.594;2024-03-23T05:12:36;94973.56;;;10.98;56.86
86206;BME280;76857;48.140;11.594;2024-03-23T05:15:01;94983.44;;;11.03;56.76
86206;BME280;76857;48.140;11.594;2024-03-23T05:17:27;94971.22;;;11.07;56.36
86206;BME280;76857;48.140;11.594;2024-03-23T05:19:52;94977.63;;;11.06;56.84
86206;BME280;76857;48.140;11.594;2024-03-23T05:22:18;94970.13;;;11.08;57.17
86206;BME280;76857;48.140;11.594;2024-03-23T05:24:45;94963.72;;;11.04;56.90
86206;BME280;76857;48.140;11.594;2024-03-23T05:27:11;94975.19;;;11.04;56.96
86206;BME280;76857;48.140;11.594;2024-03-23T05:29:36;94965.84;;;11.02;56.99
86206;BME280;76857;48.140;11.594;2024-03-23T05:32:02;94969.06;;;11.04;56.83
86206;BME280;76857;48.140;11.594;2024-03-23T05:34:28;94968.56;;;11.12;56.75
86206;BME280;76857;48.140;11.594;2024-03-23T05:36:54;94969.88;;;11.09;56.84
86206;BME280;76857;48.140;11.594;2024-03-23T05:39:20;94967.75;;;11.11;56.76
86206;BME280;76857;48.140;11.594;2024-03-23T05:41:47;94963.75;;;11.14;56.76
86206;BME280;76857;48.140;11.594;2024-03-23T05:44:13;94965.34;;;11.10;56.33
86206;BME280;76857;48.140;11.594;2024-03-23T05:46:40;94960.81;;;11.15;56.58
86206;BME280;76857;48.140;11.594;2024-03-23T05:49:05;94958.34;;;10.99;57.91
86206;BME280;76857;48.140;11.594;2024-03-23T05:51:31;94966.59;;;10.97;59.33
86206;BME280;76857;48.140;11.594;2024-03-23T05:53:56;94955.75;;;11.14;57.61
86206;BME280;76857;48.140;11.594;2024-03-23T05:56:22;94963.56;;;11.30;57.25
86206;BME280;76857;48.140;11.594;2024-03-23T05:58:47;94953.47;;;11.43;57.98
86206;BME280;76857;48.140;11.594;2024-03-23T06:01:13;94961.50;;;11.53;57.41
86206;BME280;76857;48.140;11.594;2024-03-23T06:03:39;94940.34;;;11.36;58.04
86206;BME280;76857;48.140;11.594;2024-03-23T06:06:04;94934.28;;;11.66;57.05
86206;BME280;76857;48.140;11.594;2024-03-23T06:08:35;94930.88;;;11.91;57.00
86206;BME280;76857;48.140;11.594;2024-03-23T06:11:01;94931.69;;;12.11;54.96
86206;BME280;76857;48.140;11.594;2024-03-23T06:13:26;94922.00;;;12.61;53.20
86206;BME280;76857;48.140;11.594;2024-03-23T06:15:55;94920.28;;;13.16;51.24
86206;BME280;76857;48.140;11.594;2024-03-23T06:18:20;94917.25;;;13.81;49.13
86206;BME280;76857;48.140;11.594;2024-03-23T06:20:46;94915.38;;;14.21;48.25
86206;BME280;76857;48.140;11.594;2024-03-23T06:23:11;94911.88;;;14.54;48.35
86206;BME280;76857;48.140;11.594;2024-03-23T06:25:38;94905.06;;;15.15;45.74
86206;BME280;76857;48.140;11.594;2024-03-23T06:28:03;94893.31;;;15.29;45.68
86206;BME280;76857;48.140;11.594;2024-03-23T06:30:29;94890.19;;;15.22;46.08
86206;BME280;76857;48.140;11.594;2024-03-23T06:32:57;94891.28;;;14.97;47.06
86206;BME280;76857;48.140;11.594;2024-03-23T06:35:22;94883.34;;;14.87;45.93
86206;BME280;76857;48.140;11.594;2024-03-23T06:37:48;94880.25;;;15.65;44.81
86206;BME280;76857;48.140;11.594;2024-03-23T06:40:13;94867.53;;;15.52;45.22
86206;BME280;76857;48.140;11.594;2024-03-23T06:42:39;94855.19;;;15.27;45.14
86206;BME280;76857;48.140;11.594;2024-03-23T06:45:05;94847.72;;;15.00;46.45
86206;BME280;76857;48.140;11.594;2024-03-23T06:47:31;94832.88;;;14.84;47.10
86206;BME280;76857;48.140;11.594;2024-03-23T06:49:57;94832.69;;;15.61;44.36
86206;BME280;76857;48.140;11.594;2024-03-23T06:52:22;94832.78;;;16.39;42.57
86206;BME280;76857;48.140;11.594;2024-03-23T06:54:48;94826.16;;;17.05;41.62
86206;BME280;76857;48.140;11.594;2024-03-23T06:57:13;94832.81;;;17.21;41.04
86206;BME280;76857;48.140;11.594;2024-03-23T06:59:39;94826.25;;;17.00;41.30
86206;BME280;76857;48.140;11.594;2024-03-23T07:02:05;94823.06;;;16.84;41.44
86206;BME280;76857;48.140;11.594;2024-03-23T07:04:33;94826.34;;;17.08;40.57
86206;BME280;76857;48.140;11.594;2024-03-23T07:06:59;94825.59;;;17.30;40.41
86206;BME280;76857;48.140;11.594;2024-03-23T07:09:24;94817.47;;;16.94;41.00
86206;BME280;76857;48.140;11.594;2024-03-23T07:11:53;94818.06;;;16.18;42.09
86206;BME280;76857;48.140;11.594;2024-03-23T07:14:18;94823.75;;;15.84;43.39
86206;BME280;76857;48.140;11.594;2024-03-23T07:16:44;94825.94;;;15.63;43.96
86206;BME280;76857;48.140;11.594;2024-03-23T07:19:09;94823.22;;;15.44;45.04
86206;BME280;76857;48.140;11.594;2024-03-23T07:21:35;94818.72;;;15.21;45.57
86206;BME280;76857;48.140;11.594;2024-03-23T07:24:00;94823.06;;;15.17;45.89
86206;BME280;76857;48.140;11.594;2024-03-23T07:26:26;94817.25;;;15.10;46.55
86206;BME280;76857;48.140;11.594;2024-03-23T07:28:52;94824.72;;;14.94;47.09
86206;BME280;76857;48.140;11.594;2024-03-23T07:31:18;94826.50;;;14.80;48.06
86206;BME280;76857;48.140;11.594;2024-03-23T07:33:45;94834.19;;;14.39;49.24
86206;BME280;76857;48.140;11.594;2024-03-23T07:36:10;94832.19;;;14.21;49.33
86206;BME280;76857;48.140;11.594;2024-03-23T07:38:36;94854.88;;;14.62;48.55
86206;BME280;76857;48.140;11.594;2024-03-23T07:41:09;94865.38;;;14.30;48.50
86206;BME280;76857;48.140;11.594;2024-03-23T07:43:36;94896.31;;;14.22;50.41
86206;BME280;76857;48.140;11.594;2024-03-23T07:46:02;94909.88;;;14.02;50.94
86206;BME280;76857;48.140;11.594;2024-03-23T07:48:29;94918.81;;;13.88;52.60
86206;BME280;76857;48.140;11.594;2024-03-23T07:51:05;94944.34;;;13.85;55.30
86206;BME280;76857;48.140;11.594;2024-03-23T07:53:35;94954.94;;;13.56;58.55
86206;BME280;76857;48.140;11.594;2024-03-23T07:56:19;94939.09;;;12.85;60.88
86206;BME280;76857;48.140;11.594;2024-03-23T07:58:45;94941.84;;;12.65;62.88
86206;BME280;76857;48.140;11.594;2024-03-23T08:01:16;94961.88;;;12.78;63.33
86206;BME280;76857;48.140;11.594;2024-03-23T08:03:43;94959.22;;;12.57;64.29
86206;BME280;76857;48.140;11.594;2024-03-23T08:06:16;94968.06;;;12.53;65.68
86206;BME280;76857;48.140;11.594;2024-03-23T08:08:43;94990.50;;;12.11;68.20
86206;BME280;76857;48.140;11.594;2024-03-23T08:11:09;94978.75;;;12.12;69.60
86206;BME280;76857;48.140;11.594;2024-03-23T08:13:35;94991.56;;;12.00;69.51
86206;BME280;76857;48.140;11.594;2024-03-23T08:16:02;94997.44;;;11.92;70.72
86206;BME280;76857;48.140;11.594;2024-03-23T08:18:29;94997.69;;;11.91;72.20
86206;BME280;76857;48.140;11.594;2024-03-23T08:21:01;95007.00;;;11.73;72.59
86206;BME280;76857;48.140;11.594;2024-03-23T08:23:28;95023.94;;;12.04;70.95
86206;BME280;76857;48.140;11.594;2024-03-23T08:26:07;95025.19;;;11.76;73.55
86206;BME280;76857;48.140;11.594;2024-03-23T08:28:33;95032.84;;;11.62;74.15
86206;BME280;76857;48.140;11.594;2024-03-23T08:31:03;95041.75;;;11.21;76.48
86206;BME280;76857;48.140;11.594;2024-03-23T08:33:29;95071.97;;;10.84;76.61
86206;BME280;76857;48.140;11.594;2024-03-23T08:36:02;95082.88;;;10.83;77.61
86206;BME280;76857;48.140;11.594;2024-03-23T08:38:28;95096.59;;;10.65;78.15
86206;BME280;76857;48.140;11.594;2024-03-23T08:41:08;95100.41;;;10.69;75.99
86206;BME280;76857;48.140;11.594;2024-03-23T08:43:38;95102.78;;;10.70;74.78
86206;BME280;76857;48.140;11.594;2024-03-23T08:46:11;95108.16;;;10.75;74.24
86206;BME280;76857;48.140;11.594;2024-03-23T08:48:38;95111.25;;;10.30;76.67
86206;BME280;76857;48.140;11.594;2024-03-23T08:51:05;95101.31;;;10.04;78.24
86206;BME280;76857;48.140;11.594;2024-03-23T08:53:31;95114.13;;;9.80;79.27
86206;BME280;76857;48.140;11.594;2024-03-23T08:55:58;95130.22;;;9.69;78.93
86206;BME280;76857;48.140;11.594;2024-03-23T08:58:25;95129.47;;;9.95;77.49
86206;BME280;76857;48.140;11.594;2024-03-23T09:00:51;95127.84;;;9.50;80.00
86206;BME280;76857;48.140;11.594;2024-03-23T09:03:17;95141.28;;;9.60;81.58
86206;BME280;76857;48.140;11.594;2024-03-23T09:05:42;95144.63;;;9.51;80.41
86206;BME280;76857;48.140;11.594;2024-03-23T09:08:08;95159.25;;;9.48;82.21
86206;BME280;76857;48.140;11.594;2024-03-23T09:10:41;95155.16;;;9.41;82.13
86206;BME280;76857;48.140;11.594;2024-03-23T09:13:07;95165.25;;;9.22;81.47
86206;BME280;76857;48.140;11.594;2024-03-23T09:15:34;95147.31;;;9.34;83.00
86206;BME280;76857;48.140;11.594;2024-03-23T09:18:00;95144.00;;;9.44;83.00
86206;BME280;76857;48.140;11.594;2024-03-23T09:20:26;95151.41;;;9.58;81.86
86206;BME280;76857;48.140;11.594;2024-03-23T09:22:51;95159.00;;;9.50;84.66
86206;BME280;76857;48.140;11.594;2024-03-23T09:25:17;95150.41;;;9.43;81.58
86206;BME280;76857;48.140;11.594;2024-03-23T09:27:42;95158.75;;;9.51;83.17
86206;BME280;76857;48.140;11.594;2024-03-23T09:30:08;95155.22;;;9.46;83.79
86206;BME280;76857;48.140;11.594;2024-03-23T09:32:35;95149.81;;;9.41;83.20
86206;BME280;76857;48.140;11.594;2024-03-23T09:35:00;95154.97;;;9.47;83.97
86206;BME280;76857;48.140;11.594;2024-03-23T09:37:26;95166.31;;;9.38;83.45
86206;BME280;76857;48.140;11.594;2024-03-23T09:39:51;95173.63;;;9.31;83.98
86206;BME280;76857;48.140;11.594;2024-03-23T09:42:17;95176.03;;;9.49;81.58
86206;BME280;76857;48.140;11.594;2024-03-23T09:44:43;95182.75;;;9.18;80.92
86206;BME280;76857;48.140;11.594;2024-03-23T09:47:09;95191.97;;;9.27;82.15
86206;BME280;76857;48.140;11.594;2024-03-23T09:49:34;95189.13;;;9.34;80.10
86206;BME280;76857;48.140;11.594;2024-03-23T09:52:02;95196.22;;;9.11;78.51
86206;BME280;76857;48.140;11.594;2024-03-23T09:54:28;95208.81;;;9.33;78.75
86206;BME280;76857;48.140;11.594;2024-03-23T09:56:54;95208.41;;;9.24;78.05
86206;BME280;76857;48.140;11.594;2024-03-23T09:59:19;95211.94;;;9.30;76.49
86206;BME280;76857;48.140;11.594;2024-03-23T10:01:45;95220.66;;;9.08;77.88
86206;BME280;76857;48.140;11.594;2024-03-23T10:04:10;95222.81;;;8.95;77.79
86206;BME280;76857;48.140;11.594;2024-03-23T10:06:36;95225.38;;;8.73;79.42
86206;BME280;76857;48.140;11.594;2024-03-23T10:09:16;95231.19;;;8.70;77.27
86206;BME280;76857;48.140;11.594;2024-03-23T10:11:43;95226.31;;;8.50;77.27
86206;BME280;76857;48.140;11.594;2024-03-23T10:14:29;95211.91;;;8.34;74.35
86206;BME280;76857;48.140;11.594;2024-03-23T10:17:16;95221.66;;;8.74;74.81
86206;BME280;76857;48.140;11.594;2024-03-23T10:19:46;95229.44;;;8.92;76.64
86206;BME280;76857;48.140;11.594;2024-03-23T10:22:20;95228.81;;;9.18;75.54
86206;BME280;76857;48.140;11.594;2024-03-23T10:24:47;95225.41;;;9.23;75.00
86206;BME280;76857;48.140;11.594;2024-03-23T10:27:17;95226.00;;;9.08;76.65
86206;BME280;76857;48.140;11.594;2024-03-23T10:29:47;95228.81;;;9.18;75.51
86206;BME280;76857;48.140;11.594;2024-03-23T10:32:14;95233.13;;;8.74;78.76
86206;BME280;76857;48.140;11.594;2024-03-23T10:34:40;95238.34;;;8.69;79.91
86206;BME280;76857;48.140;11.594;2024-03-23T10:37:06;95239.47;;;8.73;79.89
86206;BME280;76857;48.140;11.594;2024-03-23T10:39:39;95245.25;;;8.99;78.40
86206;BME280;76857;48.140;11.594;2024-03-23T10:42:14;95242.09;;;9.02;79.75
86206;BME280;76857;48.140;11.594;2024-03-23T10:44:40;95248.13;;;8.80;78.47
86206;BME280;76857;48.140;11.594;2024-03-23T10:47:05;95251.22;;;9.22;77.49
86206;BME280;76857;48.140;11.594;2024-03-23T10:49:32;95269.69;;;9.12;77.19
86206;BME280;76857;48.140;11.594;2024-03-23T10:52:03;95278.16;;;9.09;76.23
86206;BME280;76857;48.140;11.594;2024-03-23T10:54:30;95285.25;;;9.04;73.21
86206;BME280;76857;48.140;11.594;2024-03-23T10:59:31;95292.72;;;8.62;72.11
86206;BME280;76857;48.140;11.594;2024-03-23T11:01:58;95304.38;;;8.32;71.97
86206;BME280;76857;48.140;11.594;2024-03-23T11:04:37;95294.63;;;8.50;71.85
86206;BME280;76857;48.140;11.594;2024-03-23T11:09:52;95303.41;;;8.78;72.14
86206;BME280;76857;48.140;11.594;2024-03-23T11:14:57;95309.22;;;9.04;71.64
86206;BME280;76857;48.140;11.594;2024-03-23T11:17:25;95316.31;;;8.58;72.17
86206;BME280;76857;48.140;11.594;2024-03-23T11:22:41;95333.81;;;8.82;72.55
86206;BME280;76857;48.140;11.594;2024-03-23T11:25:16;95339.56;;;8.91;73.37
86206;BME280;76857;48.140;11.594;2024-03-23T11:27:44;95316.59;;;8.73;73.13
86206;BME280;76857;48.140;11.594;2024-03-23T11:30:30;95295.38;;;8.90;72.71
86206;BME280;76857;48.140;11.594;2024-03-23T11:32:57;95287.06;;;8.87;72.86
86206;BME280;76857;48.140;11.594;2024-03-23T11:35:33;95288.06;;;8.97;72.36
86206;BME280;76857;48.140;11.594;2024-03-23T11:40:32;95310.25;;;9.03;72.42
86206;BME280;76857;48.140;11.594;2024-03-23T11:43:05;95324.19;;;8.93;73.55
86206;BME280;76857;48.140;11.594;2024-03-23T11:45:39;95320.84;;;9.14;72.38
86206;BME280;76857;48.140;11.594;2024-03-23T11:48:10;95311.91;;;8.92;71.60
86206;BME280;76857;48.140;11.594;2024-03-23T11:50:41;95314.78;;;8.62;72.09
86206;BME280;76857;48.140;11.594;2024-03-23T11:53:18;95322.69;;;9.14;70.13
86206;BME280;76857;48.140;11.594;2024-03-23T11:58:15;95295.22;;;8.97;71.48
86206;BME280;76857;48.140;11.594;2024-03-23T12:00:41;95296.97;;;9.19;71.36
86206;BME280;76857;48.140;11.594;2024-03-23T12:03:07;95299.13;;;9.22;69.95
86206;BME280;76857;48.140;11.594;2024-03-23T12:05:33;95306.16;;;9.12;72.09
86206;BME280;76857;48.140;11.594;2024-03-23T12:10:51;95309.22;;;9.04;72.10
86206;BME280;76857;48.140;11.594;2024-03-23T12:13:18;95298.78;;;8.74;70.45
86206;BME280;76857;48.140;11.594;2024-03-23T12:15:50;95312.78;;;9.09;69.50
86206;BME280;76857;48.140;11.594;2024-03-23T12:18:16;95302.88;;;8.65;68.60
86206;BME280;76857;48.140;11.594;2024-03-23T12:20:41;95292.84;;;8.67;68.68
86206;BME280;76857;48.140;11.594;2024-03-23T12:23:12;95292.34;;;8.70;69.56
86206;BME280;76857;48.140;11.594;2024-03-23T12:25:38;95297.50;;;8.48;68.76
86206;BME280;76857;48.140;11.594;2024-03-23T12:28:05;95302.91;;;8.53;66.44
86206;BME280;76857;48.140;11.594;2024-03-23T12:30:41;95300.66;;;8.73;66.59
86206;BME280;76857;48.140;11.594;2024-03-23T12:33:07;95287.94;;;8.75;66.52
86206;BME280;76857;48.140;11.594;2024-03-23T12:35:32;95281.88;;;8.80;64.77
86206;BME280;76857;48.140;11.594;2024-03-23T12:38:04;95265.06;;;8.91;62.85
86206;BME280;76857;48.140;11.594;2024-03-23T12:40:30;95281.22;;;9.01;61.73
86206;BME280;76857;48.140;11.594;2024-03-23T12:42:55;95285.97;;;8.99;59.97
86206;BME280;76857;48.140;11.594;2024-03-23T12:45:22;95282.56;;;9.32;59.76
86206;BME280;76857;48.140;11.594;2024-03-23T12:47:47;95275.19;;;9.39;60.28
86206;BME280;76857;48.140;11.594;2024-03-23T12:50:13;95281.34;;;9.56;60.82
86206;BME280;76857;48.140;11.594;2024-03-23T12:52:39;95287.88;;;9.49;58.90
86206;BME280;76857;48.140;11.594;2024-03-23T12:55:04;95283.34;;;9.49;59.74
86206;BME280;76857;48.140;11.594;2024-03-23T12:57:33;95282.78;;;9.64;61.11
86206;BME280;76857;48.140;11.594;2024-03-23T12:59:59;95279.63;;;9.84;58.39
86206;BME280;76857;48.140;11.594;2024-03-23T13:02:24;95291.59;;;9.31;59.69
86206;BME280;76857;48.140;11.594;2024-03-23T13:04:51;95292.78;;;9.40;60.67
86206;BME280;76857;48.140;11.594;2024-03-23T13:07:17;95293.84;;;9.56;60.25
86206;BME280;76857;48.140;11.594;2024-03-23T13:09:43;95304.41;;;9.84;59.06
86206;BME280;76857;48.140;11.594;2024-03-23T13:12:09;95298.84;;;9.86;59.90
86206;BME280;76857;48.140;11.594;2024-03-23T13:14:34;95292.59;;;9.97;59.32
86206;BME280;76857;48.140;11.594;2024-03-23T13:17:00;95288.63;;;10.38;57.86
86206;BME280;76857;48.140;11.594;2024-03-23T13:19:26;95276.28;;;10.32;58.12
86206;BME280;76857;48.140;11.594;2024-03-23T13:21:57;95278.59;;;10.06;59.09
86206;BME280;76857;48.140;11.594;2024-03-23T13:24:23;95262.28;;;10.20;58.50
86206;BME280;76857;48.140;11.594;2024-03-23T13:26:50;95256.97;;;10.20;57.48
86206;BME280;76857;48.140;11.594;2024-03-23T13:29:18;95249.25;;;9.85;56.52
86206;BME280;76857;48.140;11.594;2024-03-23T13:31:44;95244.84;;;9.74;56.36
86206;BME280;76857;48.140;11.594;2024-03-23T13:34:09;95257.16;;;9.96;56.84
86206;BME280;76857;48.140;11.594;2024-03-23T13:36:35;95253.81;;;9.51;56.02
86206;BME280;76857;48.140;11.594;2024-03-23T13:39:04;95258.53;;;9.82;54.58
86206;BME280;76857;48.140;11.594;2024-03-23T13:41:39;95255.03;;;9.60;53.85
86206;BME280;76857;48.140;11.594;2024-03-23T13:44:06;95254.59;;;9.85;55.10
86206;BME280;76857;48.140;11.594;2024-03-23T13:46:32;95260.09;;;9.45;53.99
86206;BME280;76857;48.140;11.594;2024-03-23T13:48:57;95262.03;;;9.49;56.13
86206;BME280;76857;48.140;11.594;2024-03-23T13:51:24;95267.22;;;9.39;57.24
86206;BME280;76857;48.140;11.594;2024-03-23T13:53:55;95273.75;;;9.32;56.91
86206;BME280;76857;48.140;11.594;2024-03-23T13:56:24;95278.59;;;9.35;57.20
86206;BME280;76857;48.140;11.594;2024-03-23T13:58:50;95282.25;;;8.84;58.82
86206;BME280;76857;48.140;11.594;2024-03-23T14:01:16;95306.91;;;9.41;58.45
86206;BME280;76857;48.140;11.594;2024-03-23T14:03:42;95330.06;;;9.40;58.47
86206;BME280;76857;48.140;11.594;2024-03-23T14:06:09;95343.63;;;8.94;62.80
86206;BME280;76857;48.140;11.594;2024-03-23T14:08:35;95324.84;;;7.74;67.76
86206;BME280;76857;48.140;11.594;2024-03-23T14:11:02;95312.06;;;7.18;71.06
86206;BME280;76857;48.140;11.594;2024-03-23T14:13:29;95302.69;;;7.03;72.64
86206;BME280;76857;48.140;11.594;2024-03-23T14:15:54;95301.66;;;7.16;73.91
86206;BME280;76857;48.140;11.594;2024-03-23T14:18:20;95303.16;;;7.12;73.80
86206;BME280;76857;48.140;11.594;2024-03-23T14:20:47;95304.91;;;7.18;74.02
86206;BME280;76857;48.140;11.594;2024-03-23T14:23:13;95305.50;;;7.32;72.18
86206;BME280;76857;48.140;11.594;2024-03-23T14:25:38;95310.81;;;7.43;71.88
86206;BME280;76857;48.140;11.594;2024-03-23T14:28:04;95311.66;;;7.55;72.40
86206;BME280;76857;48.140;11.594;2024-03-23T14:30:29;95317.06;;;7.49;71.70
86206;BME280;76857;48.140;11.594;2024-03-23T14:32:56;95322.38;;;7.61;72.85
86206;BME280;76857;48.140;11.594;2024-03-23T14:35:22;95314.66;;;7.59;72.11
86206;BME280;76857;48.140;11.594;2024-03-23T14:37:48;95324.81;;;7.62;71.12
86206;BME280;76857;48.140;11.594;2024-03-23T14:40:14;95326.31;;;7.70;70.21
86206;BME280;76857;48.140;11.594;2024-03-23T14:42:40;95329.09;;;7.86;67.63
86206;BME280;76857;48.140;11.594;2024-03-23T14:45:06;95323.19;;;8.31;66.10
86206;BME280;76857;48.140;11.594;2024-03-23T14:47:32;95330.38;;;8.70;60.34
86206;BME280;76857;48.140;11.594;2024-03-23T14:49:58;95336.84;;;8.74;58.07
86206;BME280;76857;48.140;11.594;2024-03-23T14:52:24;95344.94;;;8.39;58.38
86206;BME280;76857;48.140;11.594;2024-03-23T14:54:50;95355.41;;;7.65;60.73
86206;BME280;76857;48.140;11.594;2024-03-23T14:57:15;95362.78;;;7.51;57.94
86206;BME280;76857;48.140;11.594;2024-03-23T14:59:40;95369.03;;;7.68;58.89
86206;BME280;76857;48.140;11.594;2024-03-23T15:02:07;95376.88;;;7.75;59.69
86206;BME280;76857;48.140;11.594;2024-03-23T15:04:33;95378.97;;;8.19;57.78
86206;BME280;76857;48.140;11.594;2024-03-23T15:06:59;95387.75;;;8.08;58.58
86206;BME280;76857;48.140;11.594;2024-03-23T15:09:24;95405.03;;;7.52;62.43
86206;BME280;76857;48.140;11.594;2024-03-23T15:11:50;95403.13;;;7.83;61.28
86206;BME280;76857;48.140;11.594;2024-03-23T15:14:15;95391.22;;;7.97;61.86
86206;BME280;76857;48.140;11.594;2024-03-23T15:16:41;95379.16;;;7.48;65.01
86206;BME280;76857;48.140;11.594;2024-03-23T15:19:08;95367.09;;;7.64;66.42
86206;BME280;76857;48.140;11.594;2024-03-23T15:21:34;95351.94;;;7.64;66.98
86206;BME280;76857;48.140;11.594;2024-03-23T15:23:59;95352.75;;;7.65;66.21
86206;BME280;76857;48.140;11.594;2024-03-23T15:26:25;95339.56;;;7.35;66.74
86206;BME280;76857;48.140;11.594;2024-03-23T15:28:51;95347.94;;;7.32;66.68
86206;BME280;76857;48.140;11.594;2024-03-23T15:31:22;95341.53;;;7.39;69.31
86206;BME280;76857;48.140;11.594;2024-03-23T15:33:48;95339.38;;;7.83;66.95
86206;BME280;76857;48.140;11.594;2024-03-23T15:36:13;95336.13;;;8.16;64.07
86206;BME280;76857;48.140;11.594;2024-03-23T15:38:38;95314.75;;;8.22;62.77
86206;BME280;76857;48.140;11.594;2024-03-23T15:41:04;95310.69;;;8.20;63.58
86206;BME280;76857;48.140;11.594;2024-03-23T15:43:30;95316.72;;;8.15;64.17
86206;BME280;76857;48.140;11.594;2024-03-23T15:46:04;95328.53;;;7.96;64.07
86206;BME280;76857;48.140;11.594;2024-03-23T15:48:30;95321.81;;;7.82;64.89
86206;BME280;76857;48.140;11.594;2024-03-23T15:50:58;95322.03;;;7.80;64.77
86206;BME280;76857;48.140;11.594;2024-03-23T15:53:25;95320.19;;;7.69;67.12
86206;BME280;76857;48.140;11.594;2024-03-23T15:58:23;95337.63;;;7.77;66.92
86206;BME280;76857;48.140;11.594;2024-03-23T16:03:21;95332.44;;;7.93;65.43
86206;BME280;76857;48.140;11.594;2024-03-23T16:05:57;95334.53;;;7.80;65.98
86206;BME280;76857;48.140;11.594;2024-03-23T16:08:23;95327.84;;;7.89;65.76
86206;BME280;76857;48.140;11.594;2024-03-23T16:10:49;95318.81;;;7.78;66.67
86206;BME280;76857;48.140;11.594;2024-03-23T16:13:15;95309.94;;;7.73;67.11
86206;BME280;76857;48.140;11.594;2024-03-23T16:15:41;95316.06;;;7.73;66.70
86206;BME280;76857;48.140;11.594;2024-03-23T16:18:06;95308.66;;;7.75;67.14
86206;BME280;76857;48.140;11.594;2024-03-23T16:20:32;95297.59;;;7.67;68.51
86206;BME280;76857;48.140;11.594;2024-03-23T16:23:04;95299.53;;;7.83;67.29
86206;BME280;76857;48.140;11.594;2024-03-23T16:25:30;95300.34;;;7.95;65.56
86206;BME280;76857;48.140;11.594;2024-03-23T16:27:58;95307.16;;;7.91;65.97
86206;BME280;76857;48.140;11.594;2024-03-23T16:30:24;95310.28;;;7.88;66.00
86206;BME280;76857;48.140;11.594;2024-03-23T16:32:49;95308.44;;;7.88;67.09
86206;BME280;76857;48.140;11.594;2024-03-23T16:35:15;95323.44;;;7.83;66.35
86206;BME280;76857;48.140;11.594;2024-03-23T16:37:41;95320.78;;;7.83;66.53
86206;BME280;76857;48.140;11.594;2024-03-23T16:40:07;95324.03;;;7.85;65.71
86206;BME280;76857;48.140;11.594;2024-03-23T16:42:35;95318.72;;;7.85;65.39
86206;BME280;76857;48.140;11.594;2024-03-23T16:45:00;95308.53;;;7.58;67.58
86206;BME280;76857;48.140;11.594;2024-03-23T16:47:26;95322.28;;;7.67;67.44
86206;BME280;76857;48.140;11.594;2024-03-23T16:49:53;95326.88;;;7.60;66.20
86206;BME280;76857;48.140;11.594;2024-03-23T16:52:18;95321.69;;;7.65;66.21
86206;BME280;76857;48.140;11.594;2024-03-23T16:54:44;95317.09;;;7.72;66.06
86206;BME280;76857;48.140;11.594;2024-03-23T16:57:09;95325.19;;;7.77;65.48
86206;BME280;76857;48.140;11.594;2024-03-23T16:59:35;95325.50;;;7.81;65.33
86206;BME280;76857;48.140;11.594;2024-03-23T17:02:00;95323.44;;;7.71;65.84
86206;BME280;76857;48.140;11.594;2024-03-23T17:04:26;95324.84;;;7.85;65.61
86206;BME280;76857;48.140;11.594;2024-03-23T17:06:51;95328.50;;;7.61;66.13
86206;BME280;76857;48.140;11.594;2024-03-23T17:09:17;95338.34;;;7.72;66.05
86206;BME280;76857;48.140;11.594;2024-03-23T17:11:42;95334.16;;;7.65;66.65
86206;BME280;76857;48.140;11.594;2024-03-23T17:14:12;95330.25;;;7.67;66.52
86206;BME280;76857;48.140;11.594;2024-03-23T17:16:40;95337.72;;;7.58;67.53
86206;BME280;76857;48.140;11.594;2024-03-23T17:19:05;95341.53;;;7.51;67.68
86206;BME280;76857;48.140;11.594;2024-03-23T17:21:31;95342.56;;;7.50;67.94
86206;BME280;76857;48.140;11.594;2024-03-23T17:23:56;95344.09;;;7.57;67.24
86206;BME280;76857;48.140;11.594;2024-03-23T17:26:25;95350.19;;;7.46;67.05
86206;BME280;76857;48.140;11.594;2024-03-23T17:28:51;95351.16;;;7.22;65.91
86206;BME280;76857;48.140;11.594;2024-03-23T17:31:17;95362.84;;;6.91;67.73
86206;BME280;76857;48.140;11.594;2024-03-23T17:33:43;95382.63;;;6.59;70.69
86206;BME280;76857;48.140;11.594;2024-03-23T17:36:09;95397.53;;;6.35;72.13
86206;BME280;76857;48.140;11.594;2024-03-23T17:38:34;95408.88;;;6.24;71.43
86206;BME280;76857;48.140;11.594;2024-03-23T17:41:04;95390.78;;;6.21;71.33
86206;BME280;76857;48.140;11.594;2024-03-23T17:43:30;95365.31;;;6.20;71.28
86206;BME280;76857;48.140;11.594;2024-03-23T17:45:57;95356.34;;;5.78;72.79
86206;BME280;76857;48.140;11.594;2024-03-23T17:48:22;95361.16;;;5.87;72.67
86206;BME280;76857;48.140;11.594;2024-03-23T17:50:48;95373.50;;;5.69;74.94
86206;BME280;76857;48.140;11.594;2024-03-23T17:53:13;95387.31;;;5.15;77.39
86206;BME280;76857;48.140;11.594;2024-03-23T17:55:39;95382.25;;;5.13;75.97
86206;BME280;76857;48.140;11.594;2024-03-23T17:58:04;95391.69;;;5.34;75.00
86206;BME280;76857;48.140;11.594;2024-03-23T18:00:30;95388.41;;;5.63;75.47
86206;BME280;76857;48.140;11.594;2024-03-23T18:02:55;95385.56;;;5.40;76.06
86206;BME280;76857;48.140;11.594;2024-03-23T18:05:21;95382.72;;;5.35;76.98
86206;BME280;76857;48.140;11.594;2024-03-23T18:07:47;95383.84;;;5.45;76.41
86206;BME280;76857;48.140;11.594;2024-03-23T18:10:13;95397.31;;;5.44;76.78
86206;BME280;76857;48.140;11.594;2024-03-23T18:12:38;95407.09;;;5.43;76.55
86206;BME280;76857;48.140;11.594;2024-03-23T18:15:04;95426.28;;;5.32;76.60
86206;BME280;76857;48.140;11.594;2024-03-23T18:17:30;95418.47;;;5.13;78.36
86206;BME280;76857;48.140;11.594;2024-03-23T18:19:56;95407.44;;;4.84;76.58